createdAt,value
2023-04-29T00:02:18.699Z,18.31
2023-04-29T00:04:46.450Z,18.33
2023-04-29T00:07:14.101Z,18.34
2023-04-29T00:09:42.762Z,18.65
2023-04-29T00:12:10.020Z,18.57
2023-04-29T00:14:37.344Z,18.56
2023-04-29T00:17:04.876Z,18.71
2023-04-29T00:19:32.276Z,18.82
2023-04-29T00:21:59.605Z,18.93
2023-04-29T00:24:26.926Z,19.08
2023-04-29T00:26:55.622Z,18.92
2023-04-29T00:29:22.956Z,18.89
2023-04-29T00:31:50.227Z,18.83
2023-04-29T00:34:17.629Z,18.92
2023-04-29T00:36:45.038Z,18.83
2023-04-29T00:39:13.961Z,18.76
2023-04-29T00:41:42.680Z,18.78
2023-04-29T00:44:11.425Z,18.57
2023-04-29T00:46:38.877Z,18.42
2023-04-29T00:49:10.504Z,18.53
2023-04-29T00:51:38.589Z,18.22
2023-04-29T00:54:06.329Z,18.49
2023-04-29T00:56:36.126Z,18.67
2023-04-29T00:59:03.485Z,18.63
2023-04-29T01:01:32.741Z,18.42
2023-04-29T01:04:00.605Z,18.65
2023-04-29T01:06:37.380Z,18.55
2023-04-29T01:09:21.956Z,18.72
2023-04-29T01:12:11.695Z,18.84
2023-04-29T01:14:43.307Z,18.87
2023-04-29T01:17:18.278Z,18.57
2023-04-29T01:19:50.136Z,18.26
2023-04-29T01:22:17.666Z,18.17
2023-04-29T01:24:46.453Z,18.22
2023-04-29T01:27:22.929Z,18.41
2023-04-29T01:29:56.369Z,18.21
2023-04-29T01:32:37.213Z,18.39
2023-04-29T01:35:11.614Z,18.58
2023-04-29T01:37:48.373Z,18.58
2023-04-29T01:40:23.972Z,18.32
2023-04-29T01:43:00.559Z,18.38
2023-04-29T01:45:29.576Z,18.56
2023-04-29T01:47:57.980Z,18.39
2023-04-29T01:50:25.396Z,18.45
2023-04-29T01:52:52.769Z,18.47
2023-04-29T01:55:21.946Z,18.47
2023-04-29T01:57:49.349Z,18.50
2023-04-29T02:00:16.915Z,18.42
2023-04-29T02:02:44.308Z,18.25
2023-04-29T02:05:11.772Z,18.00
2023-04-29T02:07:39.119Z,18.09
2023-04-29T02:10:07.299Z,18.06
2023-04-29T02:12:36.021Z,18.06
2023-04-29T02:15:03.658Z,17.83
2023-04-29T02:17:31.041Z,17.90
2023-04-29T02:19:58.329Z,18.12
2023-04-29T02:22:25.623Z,17.87
2023-04-29T02:24:53.081Z,17.78
2023-04-29T02:27:20.398Z,17.57
2023-04-29T02:29:49.174Z,17.75
2023-04-29T02:32:16.535Z,17.55
2023-04-29T02:34:43.947Z,17.65
2023-04-29T02:37:11.221Z,17.73
2023-04-29T02:39:38.544Z,17.98
2023-04-29T02:42:05.938Z,17.89
2023-04-29T02:44:33.363Z,18.07
2023-04-29T02:47:02.423Z,17.92
2023-04-29T02:49:29.719Z,17.90
2023-04-29T02:51:57.102Z,17.86
2023-04-29T02:54:24.502Z,17.97
2023-04-29T02:56:51.793Z,17.96
2023-04-29T02:59:19.139Z,17.92
2023-04-29T03:01:46.675Z,17.68
2023-04-29T03:04:15.711Z,17.73
2023-04-29T03:06:43.199Z,17.99
2023-04-29T03:09:10.485Z,18.09
2023-04-29T03:11:37.819Z,18.24
2023-04-29T03:14:05.221Z,18.25
2023-04-29T03:16:32.533Z,18.29
2023-04-29T03:18:59.838Z,18.23
2023-04-29T03:21:28.562Z,18.33
2023-04-29T03:23:55.872Z,18.41
2023-04-29T03:26:23.305Z,18.32
2023-04-29T03:28:50.681Z,18.26
2023-04-29T03:31:18.319Z,18.44
2023-04-29T03:33:45.726Z,18.55
2023-04-29T03:36:13.016Z,18.44
2023-04-29T03:38:41.727Z,18.43
2023-04-29T03:41:09.608Z,18.28
2023-04-29T03:43:36.945Z,18.11
2023-04-29T03:46:04.306Z,18.06
2023-04-29T03:48:31.693Z,17.98
2023-04-29T03:50:59.033Z,18.11
2023-04-29T03:53:26.517Z,18.01
2023-04-29T03:55:55.223Z,18.09
2023-04-29T03:58:22.654Z,17.97
2023-04-29T04:00:50.000Z,17.98
2023-04-29T04:03:17.508Z,17.81
2023-04-29T04:05:44.992Z,17.77
2023-04-29T04:08:12.326Z,17.53
2023-04-29T04:10:39.575Z,17.57
2023-04-29T04:13:08.253Z,17.65
2023-04-29T04:15:37.780Z,17.69
2023-04-29T04:18:14.237Z,17.69
2023-04-29T04:20:41.571Z,17.79
2023-04-29T04:23:08.891Z,17.87
2023-04-29T04:25:38.668Z,18.07
2023-04-29T04:28:05.960Z,18.13
2023-04-29T04:30:35.732Z,18.07
2023-04-29T04:33:03.107Z,17.99
2023-04-29T04:35:30.391Z,18.01
2023-04-29T04:37:57.703Z,18.07
2023-04-29T04:40:25.133Z,17.85
2023-04-29T04:42:54.715Z,18.00
2023-04-29T04:45:22.555Z,18.03
2023-04-29T04:47:51.269Z,18.09
2023-04-29T04:50:18.716Z,18.07
2023-04-29T04:52:48.281Z,17.92
2023-04-29T04:55:15.824Z,18.07
2023-04-29T04:57:43.170Z,18.23
2023-04-29T05:00:12.021Z,18.15
2023-04-29T05:02:39.418Z,17.73
2023-04-29T05:05:08.904Z,17.88
2023-04-29T05:07:36.314Z,17.98
2023-04-29T05:10:11.298Z,18.03
2023-04-29T05:12:38.626Z,17.89
2023-04-29T05:15:07.175Z,18.01
2023-04-29T05:17:34.620Z,18.09
2023-04-29T05:20:02.461Z,17.81
2023-04-29T05:22:31.610Z,17.78
2023-04-29T05:24:59.262Z,17.70
2023-04-29T05:27:27.170Z,17.69
2023-04-29T05:29:54.773Z,17.70
2023-04-29T05:32:22.560Z,17.78
2023-04-29T05:34:49.924Z,17.82
2023-04-29T05:37:17.233Z,17.99
2023-04-29T05:39:45.984Z,18.12
2023-04-29T05:42:13.259Z,18.13
2023-04-29T05:44:40.524Z,18.24
2023-04-29T05:47:07.814Z,18.26
2023-04-29T05:49:35.297Z,18.01
2023-04-29T05:52:02.625Z,17.86
2023-04-29T05:54:33.129Z,17.76
2023-04-29T05:57:02.678Z,17.75
2023-04-29T05:59:30.098Z,17.87
2023-04-29T06:01:57.533Z,17.88
2023-04-29T06:04:25.285Z,17.69
2023-04-29T06:06:53.646Z,17.90
2023-04-29T06:09:27.501Z,18.05
2023-04-29T06:11:55.479Z,18.03
2023-04-29T06:14:24.385Z,17.93
2023-04-29T06:16:51.693Z,17.84
2023-04-29T06:19:18.973Z,17.89
2023-04-29T06:21:46.309Z,17.94
2023-04-29T06:24:16.262Z,17.78
2023-04-29T06:26:43.580Z,17.55
2023-04-29T06:29:11.022Z,17.69
2023-04-29T06:31:39.782Z,17.67
2023-04-29T06:34:07.105Z,17.80
2023-04-29T06:36:34.424Z,17.58
2023-04-29T06:39:01.760Z,17.66
2023-04-29T06:41:29.067Z,17.70
2023-04-29T06:43:56.377Z,17.50
2023-04-29T06:46:23.692Z,17.62
2023-04-29T06:48:52.441Z,17.77
2023-04-29T06:51:19.721Z,17.73
2023-04-29T06:53:47.084Z,17.80
2023-04-29T06:56:16.732Z,17.70
2023-04-29T06:58:44.455Z,17.78
2023-04-29T07:01:11.982Z,17.68
2023-04-29T07:03:39.491Z,17.68
2023-04-29T07:06:08.272Z,17.64
2023-04-29T07:08:35.595Z,17.77
2023-04-29T07:11:02.910Z,17.52
2023-04-29T07:13:30.350Z,17.47
2023-04-29T07:15:57.680Z,17.50
2023-04-29T07:18:25.018Z,17.57
2023-04-29T07:20:52.399Z,17.72
2023-04-29T07:23:21.085Z,17.53
2023-04-29T07:25:48.418Z,17.60
2023-04-29T07:28:15.712Z,17.53
2023-04-29T07:30:43.022Z,17.63
2023-04-29T07:33:10.392Z,17.59
2023-04-29T07:35:37.741Z,17.62
2023-04-29T07:38:05.001Z,17.74
2023-04-29T07:40:33.752Z,17.96
2023-04-29T07:43:01.007Z,17.78
2023-04-29T07:45:28.424Z,17.57
2023-04-29T07:47:55.763Z,17.72
2023-04-29T07:50:23.145Z,17.65
2023-04-29T07:52:50.498Z,17.82
2023-04-29T07:55:17.911Z,17.88
2023-04-29T07:57:46.613Z,18.05
2023-04-29T08:00:14.429Z,18.22
2023-04-29T08:02:41.846Z,18.08
2023-04-29T08:05:09.853Z,18.23
2023-04-29T08:07:37.322Z,18.07
2023-04-29T08:10:05.500Z,18.11
2023-04-29T08:12:32.845Z,18.02
2023-04-29T08:15:01.548Z,18.07
2023-04-29T08:17:28.862Z,18.20
2023-04-29T08:19:56.239Z,18.33
2023-04-29T08:22:23.600Z,18.43
2023-04-29T08:24:51.234Z,18.62
2023-04-29T08:27:18.783Z,18.49
2023-04-29T08:32:15.074Z,18.82
2023-04-29T08:34:42.408Z,18.84
2023-04-29T08:37:09.723Z,18.71
2023-04-29T08:39:37.009Z,18.79
2023-04-29T08:42:08.616Z,18.82
2023-04-29T08:44:36.208Z,18.69
2023-04-29T08:47:03.795Z,18.85
2023-04-29T08:49:32.925Z,19.00
2023-04-29T08:52:00.547Z,19.00
2023-04-29T08:54:27.856Z,18.99
2023-04-29T08:56:55.541Z,18.82
2023-04-29T08:59:23.530Z,18.68
2023-04-29T09:01:54.106Z,18.65
2023-04-29T09:04:36.837Z,18.80
2023-04-29T09:07:05.568Z,18.87
2023-04-29T09:09:33.658Z,18.97
2023-04-29T09:12:00.959Z,18.98
2023-04-29T09:14:30.320Z,18.95
2023-04-29T09:16:57.826Z,18.89
2023-04-29T09:19:30.412Z,19.04
2023-04-29T09:21:59.765Z,19.09
2023-04-29T09:24:27.753Z,19.12
2023-04-29T09:26:55.549Z,18.79
2023-04-29T09:29:22.967Z,18.72
2023-04-29T09:31:51.124Z,19.00
2023-04-29T09:34:18.673Z,19.31
2023-04-29T09:36:47.587Z,19.47
2023-04-29T09:39:17.517Z,19.52
2023-04-29T09:42:00.983Z,19.45
2023-04-29T09:44:33.601Z,19.63
2023-04-29T09:47:03.178Z,19.59
2023-04-29T09:49:32.164Z,19.67
2023-04-29T09:52:01.475Z,19.81
2023-04-29T09:54:31.846Z,19.74
2023-04-29T09:57:01.196Z,19.58
2023-04-29T09:59:28.680Z,19.66
2023-04-29T10:01:58.484Z,19.44
2023-04-29T10:04:27.592Z,19.34
2023-04-29T10:06:56.147Z,19.31
2023-04-29T10:09:24.191Z,19.31
2023-04-29T10:11:53.669Z,19.46
2023-04-29T10:14:22.915Z,19.34
2023-04-29T10:16:54.426Z,19.53
2023-04-29T10:19:28.517Z,19.34
2023-04-29T10:22:00.627Z,19.17
2023-04-29T10:24:28.230Z,19.08
2023-04-29T10:26:57.445Z,19.17
2023-04-29T10:29:27.529Z,19.08
2023-04-29T10:31:57.297Z,19.23
2023-04-29T10:34:26.481Z,19.17
2023-04-29T10:36:53.931Z,19.27
2023-04-29T10:39:30.121Z,19.31
2023-04-29T10:41:58.926Z,19.21
2023-04-29T10:44:26.256Z,19.39
2023-04-29T10:47:21.527Z,19.43
2023-04-29T10:50:05.184Z,19.20
2023-04-29T10:52:51.569Z,19.28
2023-04-29T10:55:19.022Z,19.21
2023-04-29T10:57:47.666Z,19.08
2023-04-29T11:00:22.099Z,19.10
2023-04-29T11:02:49.501Z,19.22
2023-04-29T11:07:45.708Z,19.52
2023-04-29T11:10:13.593Z,19.59
2023-04-29T11:12:41.005Z,19.59
2023-04-29T11:15:10.459Z,19.44
2023-04-29T11:17:38.139Z,19.71
2023-04-29T11:20:13.693Z,19.74
2023-04-29T11:22:42.377Z,19.70
2023-04-29T11:25:10.047Z,19.57
2023-04-29T11:27:38.831Z,19.64
2023-04-29T11:30:07.840Z,19.84
2023-04-29T11:32:38.090Z,19.84
2023-04-29T11:35:10.073Z,19.75
2023-04-29T11:37:37.753Z,19.25
2023-04-29T11:40:06.575Z,19.07
2023-04-29T11:42:34.768Z,19.02
2023-04-29T11:45:02.206Z,19.03
2023-04-29T11:47:31.043Z,18.97
2023-04-29T11:50:07.887Z,18.80
2023-04-29T11:52:36.534Z,18.78
2023-04-29T11:55:04.715Z,18.76
2023-04-29T11:57:32.320Z,18.72
2023-04-29T11:59:59.659Z,18.69
2023-04-29T12:02:29.925Z,18.67
2023-04-29T12:04:57.771Z,18.80
2023-04-29T12:07:27.273Z,18.75
2023-04-29T12:09:55.062Z,18.62
2023-04-29T12:12:22.823Z,18.62
2023-04-29T12:14:50.846Z,18.64
2023-04-29T12:17:18.748Z,18.82
2023-04-29T12:19:46.515Z,18.65
2023-04-29T12:22:13.821Z,18.84
2023-04-29T12:24:42.898Z,18.68
2023-04-29T12:27:10.891Z,18.75
2023-04-29T12:29:39.332Z,18.60
2023-04-29T12:32:06.770Z,18.67
2023-04-29T12:34:34.251Z,18.79
2023-04-29T12:37:02.493Z,18.75
2023-04-29T12:39:31.111Z,18.98
2023-04-29T12:42:00.565Z,18.76
2023-04-29T12:44:35.535Z,18.79
2023-04-29T12:47:08.886Z,18.69
2023-04-29T12:49:36.618Z,18.72
2023-04-29T12:52:04.463Z,18.78
2023-04-29T12:54:31.841Z,18.90
2023-04-29T12:57:00.870Z,19.21
2023-04-29T12:59:28.493Z,19.15
2023-04-29T13:01:55.927Z,19.24
2023-04-29T13:04:23.287Z,19.21
2023-04-29T13:06:50.715Z,19.36
2023-04-29T13:09:19.100Z,19.09
2023-04-29T13:11:46.585Z,19.06
2023-04-29T13:14:15.727Z,19.06
2023-04-29T13:16:43.125Z,19.11
2023-04-29T13:19:28.240Z,19.28
2023-04-29T13:21:57.837Z,19.19
2023-04-29T13:24:25.217Z,18.83
2023-04-29T13:26:52.981Z,18.98
2023-04-29T13:29:21.713Z,18.91
2023-04-29T13:31:49.041Z,19.03
2023-04-29T13:34:16.378Z,18.96
2023-04-29T13:36:43.700Z,19.12
2023-04-29T13:39:11.058Z,19.05
2023-04-29T13:41:42.256Z,19.03
2023-04-29T13:46:44.605Z,18.54
2023-04-29T13:49:38.448Z,18.32
2023-04-29T13:59:41.589Z,18.35
2023-04-29T14:02:24.078Z,18.50
2023-04-29T14:04:53.958Z,18.42
2023-04-29T14:07:21.884Z,18.34
2023-04-29T14:09:49.242Z,18.50
2023-04-29T14:12:16.549Z,18.19
2023-04-29T14:14:43.883Z,18.02
2023-04-29T14:17:11.200Z,17.79
2023-04-29T14:19:39.880Z,17.94
2023-04-29T14:22:07.210Z,17.82
2023-04-29T14:24:34.536Z,18.16
2023-04-29T14:27:01.819Z,18.24
2023-04-29T14:29:29.085Z,18.27
2023-04-29T14:31:56.428Z,18.24
2023-04-29T14:34:23.712Z,18.20
2023-04-29T14:36:52.362Z,17.69
2023-04-29T14:39:19.681Z,17.94
2023-04-29T14:41:46.978Z,17.98
2023-04-29T14:44:14.280Z,17.89
2023-04-29T14:46:41.728Z,17.92
2023-04-29T14:49:09.129Z,17.99
2023-04-29T14:51:36.465Z,17.89
2023-04-29T14:54:05.166Z,17.86
2023-04-29T14:56:32.453Z,17.84
2023-04-29T14:58:59.726Z,17.60
2023-04-29T15:01:27.209Z,17.64
2023-04-29T15:03:55.260Z,17.68
2023-04-29T15:06:22.763Z,17.54
2023-04-29T15:08:50.128Z,17.59
2023-04-29T15:11:18.770Z,17.62
2023-04-29T15:13:46.129Z,17.65
2023-04-29T15:16:13.509Z,17.63
2023-04-29T15:18:41.638Z,17.73
2023-04-29T15:21:10.689Z,17.85
2023-04-29T15:23:38.014Z,17.75
2023-04-29T15:26:05.349Z,17.46
2023-04-29T15:28:34.069Z,17.61
2023-04-29T15:31:01.371Z,17.27
2023-04-29T15:33:28.855Z,17.18
2023-04-29T15:35:56.447Z,17.10
2023-04-29T15:38:24.025Z,17.11
2023-04-29T15:40:51.369Z,17.08
2023-04-29T15:43:18.698Z,17.18
2023-04-29T15:45:47.472Z,17.36
2023-04-29T15:48:14.786Z,17.26
2023-04-29T15:50:42.121Z,17.24
2023-04-29T15:53:09.536Z,17.17
2023-04-29T15:55:36.878Z,17.24
2023-04-29T15:58:04.317Z,17.24
2023-04-29T16:00:31.586Z,17.25
2023-04-29T16:03:00.359Z,17.18
2023-04-29T16:05:27.770Z,16.82
2023-04-29T16:07:55.077Z,16.60
2023-04-29T16:10:22.511Z,16.88
2023-04-29T16:12:49.827Z,16.94
2023-04-29T16:15:17.279Z,16.97
2023-04-29T16:17:44.784Z,16.99
2023-04-29T16:20:13.664Z,16.82
2023-04-29T16:22:41.021Z,16.69
2023-04-29T16:25:09.292Z,16.65
2023-04-29T16:27:36.649Z,16.70
2023-04-29T16:30:04.565Z,16.62
2023-04-29T16:32:32.123Z,16.72
2023-04-29T16:35:01.400Z,16.63
2023-04-29T16:37:30.541Z,16.66
2023-04-29T16:39:57.938Z,16.63
2023-04-29T16:42:25.349Z,16.62
2023-04-29T16:44:52.613Z,16.48
2023-04-29T16:47:20.060Z,16.68
2023-04-29T16:49:47.682Z,16.70
2023-04-29T16:52:15.028Z,16.88
2023-04-29T16:54:43.678Z,16.87
2023-04-29T16:57:11.163Z,17.03
2023-04-29T16:59:38.467Z,16.93
2023-04-29T17:02:05.898Z,17.08
2023-04-29T17:04:33.478Z,16.93
2023-04-29T17:07:00.861Z,16.75
2023-04-29T17:09:28.157Z,16.52
2023-04-29T17:11:56.886Z,16.58
2023-04-29T17:14:24.317Z,16.76
2023-04-29T17:16:51.656Z,16.73
2023-04-29T17:19:19.448Z,16.89
2023-04-29T17:21:46.837Z,16.90
2023-04-29T17:24:14.212Z,16.90
2023-04-29T17:26:41.613Z,16.96
2023-04-29T17:29:10.336Z,16.78
2023-04-29T17:31:37.685Z,16.77
2023-04-29T17:34:05.055Z,16.72
2023-04-29T17:36:32.438Z,16.55
2023-04-29T17:38:59.730Z,16.78
2023-04-29T17:41:27.007Z,16.72
2023-04-29T17:43:54.349Z,16.85
2023-04-29T17:46:23.076Z,16.58
2023-04-29T17:48:50.387Z,16.38
2023-04-29T17:51:17.737Z,16.47
2023-04-29T17:53:45.108Z,16.69
2023-04-29T17:56:12.504Z,16.72
2023-04-29T17:58:39.778Z,16.66
2023-04-29T18:01:07.158Z,16.76
2023-04-29T18:03:35.907Z,16.92
2023-04-29T18:06:03.547Z,16.89
2023-04-29T18:08:33.512Z,16.99
2023-04-29T18:11:00.912Z,16.90
2023-04-29T18:13:28.233Z,16.80
2023-04-29T18:15:55.636Z,16.67
2023-04-29T18:18:22.927Z,16.35
2023-04-29T18:20:51.603Z,16.27
2023-04-29T18:23:18.925Z,15.96
2023-04-29T18:25:46.500Z,16.31
2023-04-29T18:28:24.882Z,16.20
2023-04-29T18:30:53.028Z,16.21
2023-04-29T18:33:20.441Z,16.17
2023-04-29T18:35:47.897Z,16.18
2023-04-29T18:38:16.632Z,16.15
2023-04-29T18:40:44.291Z,16.27
2023-04-29T18:43:11.610Z,16.25
2023-04-29T18:45:38.916Z,16.31
2023-04-29T18:48:06.412Z,16.21
2023-04-29T18:50:34.097Z,16.23
2023-04-29T18:53:01.522Z,16.22
2023-04-29T18:55:30.190Z,16.35
2023-04-29T18:57:57.542Z,16.25
2023-04-29T19:00:24.877Z,16.32
2023-04-29T19:02:52.265Z,16.24
2023-04-29T19:05:19.706Z,16.25
2023-04-29T19:07:47.036Z,16.11
2023-04-29T19:10:14.421Z,16.18
2023-04-29T19:12:43.111Z,16.05
2023-04-29T19:15:10.969Z,16.01
2023-04-29T19:17:38.294Z,16.00
2023-04-29T19:20:06.963Z,15.92
2023-04-29T19:22:34.396Z,15.85
2023-04-29T19:25:02.112Z,15.73
2023-04-29T19:27:29.611Z,15.78
2023-04-29T19:29:58.280Z,15.91
2023-04-29T19:32:27.611Z,15.77
2023-04-29T19:34:56.169Z,15.73
2023-04-29T19:37:23.540Z,15.85
2023-04-29T19:39:50.967Z,15.72
2023-04-29T19:42:18.307Z,15.68
2023-04-29T19:44:45.672Z,15.81
2023-04-29T19:47:14.574Z,15.84
2023-04-29T19:49:41.845Z,15.80
2023-04-29T19:52:09.167Z,15.73
2023-04-29T19:54:36.500Z,15.79
2023-04-29T19:57:04.035Z,15.77
2023-04-29T19:59:31.338Z,15.77
2023-04-29T20:01:58.782Z,15.73
2023-04-29T20:04:27.653Z,15.77
2023-04-29T20:06:54.929Z,15.91
2023-04-29T20:09:22.214Z,15.99
2023-04-29T20:11:49.489Z,16.07
2023-04-29T20:14:17.078Z,16.01
2023-04-29T20:16:44.469Z,16.13
2023-04-29T20:19:11.833Z,16.22
2023-04-29T20:21:40.594Z,16.17
2023-04-29T20:24:07.851Z,16.27
2023-04-29T20:26:35.196Z,16.26
2023-04-29T20:29:02.502Z,15.90
2023-04-29T20:31:29.981Z,15.92
2023-04-29T20:33:57.323Z,15.80
2023-04-29T20:36:24.603Z,15.78
2023-04-29T20:38:53.337Z,15.81
2023-04-29T20:41:20.662Z,15.85
2023-04-29T20:43:48.084Z,15.76
2023-04-29T20:46:15.464Z,15.77
2023-04-29T20:48:42.830Z,15.96
2023-04-29T20:51:10.255Z,16.01
2023-04-29T20:53:37.746Z,15.98
2023-04-29T20:56:07.237Z,16.04
2023-04-29T20:58:34.556Z,16.24
2023-04-29T21:01:01.929Z,16.19
2023-04-29T21:03:29.229Z,16.12
2023-04-29T21:05:56.913Z,16.10
2023-04-29T21:08:24.297Z,16.16
2023-04-29T21:10:51.583Z,15.97
2023-04-29T21:13:20.268Z,16.05
2023-04-29T21:15:56.576Z,15.84
2023-04-29T21:18:26.223Z,15.82
2023-04-29T21:20:53.624Z,15.94
2023-04-29T21:23:20.987Z,15.79
2023-04-29T21:25:48.527Z,15.78
2023-04-29T21:28:16.920Z,15.71
2023-04-29T21:30:45.787Z,15.86
2023-04-29T21:33:13.071Z,15.87
2023-04-29T21:35:40.649Z,15.95
2023-04-29T21:38:08.051Z,15.96
2023-04-29T21:40:39.664Z,15.72
2023-04-29T21:43:07.014Z,15.88
2023-04-29T21:45:34.467Z,15.96
2023-04-29T21:48:13.370Z,15.79
2023-04-29T21:50:41.069Z,15.84
2023-04-29T21:53:08.428Z,16.00
2023-04-29T21:55:35.910Z,16.15
2023-04-29T21:58:03.451Z,16.32
2023-04-29T22:00:30.984Z,16.28
2023-04-29T22:02:59.356Z,16.24
2023-04-29T22:05:28.036Z,16.20
2023-04-29T22:07:57.504Z,15.93
2023-04-29T22:10:25.256Z,15.95
2023-04-29T22:12:52.850Z,15.93
2023-04-29T22:15:28.084Z,16.04
2023-04-29T22:17:56.416Z,15.88
2023-04-29T22:20:23.868Z,15.72
2023-04-29T22:22:52.579Z,15.86
2023-04-29T22:25:19.968Z,15.63
2023-04-29T22:27:47.474Z,15.51
2023-04-29T22:30:14.843Z,15.65
2023-04-29T22:32:42.138Z,15.58
2023-04-29T22:35:09.773Z,15.77
2023-04-29T22:37:37.113Z,15.70
2023-04-29T22:40:07.209Z,15.79
2023-04-29T22:42:34.501Z,15.74
2023-04-29T22:45:01.837Z,15.69
2023-04-29T22:47:29.681Z,15.69
2023-04-29T22:49:57.267Z,15.51
2023-04-29T22:52:24.544Z,15.45
2023-04-29T22:54:51.846Z,15.54
2023-04-29T22:57:20.567Z,15.71
2023-04-29T22:59:47.961Z,15.70
2023-04-29T23:02:15.251Z,15.67
2023-04-29T23:04:42.619Z,15.67
2023-04-29T23:07:10.028Z,15.68
2023-04-29T23:09:37.342Z,15.63
2023-04-29T23:12:04.935Z,15.60
2023-04-29T23:14:33.573Z,15.76
2023-04-29T23:17:00.858Z,15.80
2023-04-29T23:19:28.152Z,15.73
2023-04-29T23:21:55.433Z,15.58
2023-04-29T23:24:22.904Z,15.58
2023-04-29T23:26:50.206Z,15.55
2023-04-29T23:29:17.521Z,15.38
2023-04-29T23:31:46.290Z,15.47
2023-04-29T23:34:13.615Z,15.62
2023-04-29T23:36:40.893Z,15.60
2023-04-29T23:39:08.183Z,15.68
2023-04-29T23:41:35.459Z,15.71
2023-04-29T23:44:02.789Z,15.59
2023-04-29T23:46:30.163Z,15.35
2023-04-29T23:48:58.953Z,15.57
2023-04-29T23:51:26.239Z,15.61
2023-04-29T23:53:53.524Z,15.51
2023-04-29T23:56:20.917Z,15.49
2023-04-29T23:58:48.301Z,15.58
